sensor_id;sensor_type;location;lat;lon;timestamp;temperature;humidity
35491;DHT22;21605;52.068;20.806;2022-07-05T00:00:49;18.90;98.80
35491;DHT22;21605;52.068;20.806;2022-07-05T00:03:15;18.90;99.00
35491;DHT22;21605;52.068;20.806;2022-07-05T00:05:41;18.90;98.80
35491;DHT22;21605;52.068;20.806;2022-07-05T00:08:07;18.90;99.20
35491;DHT22;21605;52.068;20.806;2022-07-05T00:10:34;18.90;98.80
35491;DHT22;21605;52.068;20.806;2022-07-05T00:12:59;18.90;98.60
35491;DHT22;21605;52.068;20.806;2022-07-05T00:15:25;18.90;99.00
35491;DHT22;21605;52.068;20.806;2022-07-05T00:17:51;18.80;99.40
35491;DHT22;21605;52.068;20.806;2022-07-05T00:20:16;18.80;99.40
35491;DHT22;21605;52.068;20.806;2022-07-05T00:22:42;18.80;99.40
35491;DHT22;21605;52.068;20.806;2022-07-05T00:25:08;18.80;99.60
35491;DHT22;21605;52.068;20.806;2022-07-05T00:27:33;18.80;99.30
35491;DHT22;21605;52.068;20.806;2022-07-05T00:29:59;18.70;99.30
35491;DHT22;21605;52.068;20.806;2022-07-05T00:32:25;18.70;99.30
35491;DHT22;21605;52.068;20.806;2022-07-05T00:34:50;19.50;99.50
35491;DHT22;21605;52.068;20.806;2022-07-05T00:37:17;18.70;99.60
35491;DHT22;21605;52.068;20.806;2022-07-05T00:39:43;18.70;99.70
35491;DHT22;21605;52.068;20.806;2022-07-05T00:42:08;18.70;99.90
35491;DHT22;21605;52.068;20.806;2022-07-05T00:44:36;18.70;99.90
35491;DHT22;21605;52.068;20.806;2022-07-05T00:47:04;18.70;99.90
35491;DHT22;21605;52.068;20.806;2022-07-05T00:49:30;18.60;99.90
35491;DHT22;21605;52.068;20.806;2022-07-05T00:51:57;18.60;99.90
35491;DHT22;21605;52.068;20.806;2022-07-05T00:54:23;18.60;99.90
35491;DHT22;21605;52.068;20.806;2022-07-05T00:56:49;18.60;99.90
35491;DHT22;21605;52.068;20.806;2022-07-05T00:59:15;18.60;99.90
35491;DHT22;21605;52.068;20.806;2022-07-05T01:01:40;18.60;99.90
35491;DHT22;21605;52.068;20.806;2022-07-05T01:04:06;18.60;99.90
35491;DHT22;21605;52.068;20.806;2022-07-05T01:06:32;18.60;99.90
35491;DHT22;21605;52.068;20.806;2022-07-05T01:08:59;18.50;99.90
35491;DHT22;21605;52.068;20.806;2022-07-05T01:11:25;18.50;99.90
35491;DHT22;21605;52.068;20.806;2022-07-05T01:13:51;18.60;99.90
35491;DHT22;21605;52.068;20.806;2022-07-05T01:16:16;18.50;99.90
35491;DHT22;21605;52.068;20.806;2022-07-05T01:18:43;18.50;99.90
35491;DHT22;21605;52.068;20.806;2022-07-05T01:21:12;18.60;99.90
35491;DHT22;21605;52.068;20.806;2022-07-05T01:23:39;18.50;99.90
35491;DHT22;21605;52.068;20.806;2022-07-05T01:26:07;18.50;99.90
35491;DHT22;21605;52.068;20.806;2022-07-05T01:28:33;18.50;99.90
35491;DHT22;21605;52.068;20.806;2022-07-05T01:31:01;18.50;99.90
35491;DHT22;21605;52.068;20.806;2022-07-05T01:33:28;18.50;99.90
35491;DHT22;21605;52.068;20.806;2022-07-05T01:35:55;18.50;99.90
35491;DHT22;21605;52.068;20.806;2022-07-05T01:38:21;18.50;99.90
35491;DHT22;21605;52.068;20.806;2022-07-05T01:40:46;18.40;99.90
35491;DHT22;21605;52.068;20.806;2022-07-05T01:43:20;18.40;99.90
35491;DHT22;21605;52.068;20.806;2022-07-05T01:45:47;18.40;99.90
35491;DHT22;21605;52.068;20.806;2022-07-05T01:48:14;18.40;99.90
35491;DHT22;21605;52.068;20.806;2022-07-05T01:50:42;18.30;99.90
35491;DHT22;21605;52.068;20.806;2022-07-05T01:53:14;18.30;99.90
35491;DHT22;21605;52.068;20.806;2022-07-05T01:55:40;18.30;99.90
35491;DHT22;21605;52.068;20.806;2022-07-05T01:58:06;18.30;99.90
35491;DHT22;21605;52.068;20.806;2022-07-05T02:03:09;18.30;99.90
35491;DHT22;21605;52.068;20.806;2022-07-05T02:05:35;18.30;99.90
35491;DHT22;21605;52.068;20.806;2022-07-05T02:08:00;18.40;99.90
35491;DHT22;21605;52.068;20.806;2022-07-05T02:10:26;18.30;99.90
35491;DHT22;21605;52.068;20.806;2022-07-05T02:12:52;18.30;99.90
35491;DHT22;21605;52.068;20.806;2022-07-05T02:15:18;18.40;99.90
35491;DHT22;21605;52.068;20.806;2022-07-05T02:17:43;18.40;99.90
35491;DHT22;21605;52.068;20.806;2022-07-05T02:20:09;18.40;99.90
35491;DHT22;21605;52.068;20.806;2022-07-05T02:22:35;18.40;99.90
35491;DHT22;21605;52.068;20.806;2022-07-05T02:25:01;18.40;99.90
35491;DHT22;21605;52.068;20.806;2022-07-05T02:27:26;18.40;99.90
35491;DHT22;21605;52.068;20.806;2022-07-05T02:29:52;18.40;99.90
35491;DHT22;21605;52.068;20.806;2022-07-05T02:32:18;18.40;99.90
35491;DHT22;21605;52.068;20.806;2022-07-05T02:34:43;18.30;99.90
35491;DHT22;21605;52.068;20.806;2022-07-05T02:37:09;18.30;99.90
35491;DHT22;21605;52.068;20.806;2022-07-05T02:39:34;18.30;99.90
35491;DHT22;21605;52.068;20.806;2022-07-05T02:42:00;18.30;99.90
35491;DHT22;21605;52.068;20.806;2022-07-05T02:44:25;18.30;99.90
35491;DHT22;21605;52.068;20.806;2022-07-05T02:46:51;18.30;99.90
35491;DHT22;21605;52.068;20.806;2022-07-05T02:49:17;18.30;99.90
35491;DHT22;21605;52.068;20.806;2022-07-05T02:51:42;18.30;99.90
35491;DHT22;21605;52.068;20.806;2022-07-05T02:54:08;18.30;99.90
35491;DHT22;21605;52.068;20.806;2022-07-05T02:56:33;18.40;99.90
35491;DHT22;21605;52.068;20.806;2022-07-05T02:58:59;18.40;99.90
35491;DHT22;21605;52.068;20.806;2022-07-05T03:01:26;18.40;99.90
35491;DHT22;21605;52.068;20.806;2022-07-05T03:03:51;18.50;99.90
35491;DHT22;21605;52.068;20.806;2022-07-05T03:06:17;18.50;99.90
35491;DHT22;21605;52.068;20.806;2022-07-05T03:08:43;18.50;99.90
35491;DHT22;21605;52.068;20.806;2022-07-05T03:11:08;18.50;99.90
35491;DHT22;21605;52.068;20.806;2022-07-05T03:13:34;18.50;99.90
35491;DHT22;21605;52.068;20.806;2022-07-05T03:15:59;18.50;99.90
35491;DHT22;21605;52.068;20.806;2022-07-05T03:18:25;18.60;99.90
35491;DHT22;21605;52.068;20.806;2022-07-05T03:20:51;18.60;99.90
35491;DHT22;21605;52.068;20.806;2022-07-05T03:23:16;18.60;99.90
35491;DHT22;21605;52.068;20.806;2022-07-05T03:25:42;18.60;99.90
35491;DHT22;21605;52.068;20.806;2022-07-05T03:28:07;18.60;99.90
35491;DHT22;21605;52.068;20.806;2022-07-05T03:30:33;18.60;99.90
35491;DHT22;21605;52.068;20.806;2022-07-05T03:32:59;18.60;99.90
35491;DHT22;21605;52.068;20.806;2022-07-05T03:35:26;18.70;99.90
35491;DHT22;21605;52.068;20.806;2022-07-05T03:37:52;18.70;99.90
35491;DHT22;21605;52.068;20.806;2022-07-05T03:40:17;18.70;99.90
35491;DHT22;21605;52.068;20.806;2022-07-05T03:42:43;18.70;99.90
35491;DHT22;21605;52.068;20.806;2022-07-05T03:45:09;18.80;99.90
35491;DHT22;21605;52.068;20.806;2022-07-05T03:47:35;18.80;99.90
35491;DHT22;21605;52.068;20.806;2022-07-05T03:50:02;18.70;99.90
35491;DHT22;21605;52.068;20.806;2022-07-05T03:52:27;18.80;99.90
35491;DHT22;21605;52.068;20.806;2022-07-05T03:54:53;18.80;99.90
35491;DHT22;21605;52.068;20.806;2022-07-05T03:57:19;18.80;99.90
35491;DHT22;21605;52.068;20.806;2022-07-05T03:59:44;18.80;99.90
35491;DHT22;21605;52.068;20.806;2022-07-05T04:02:10;18.80;99.90
35491;DHT22;21605;52.068;20.806;2022-07-05T04:04:36;18.80;99.90
35491;DHT22;21605;52.068;20.806;2022-07-05T04:07:02;18.80;99.90
35491;DHT22;21605;52.068;20.806;2022-07-05T04:09:28;18.80;99.90
35491;DHT22;21605;52.068;20.806;2022-07-05T04:11:54;18.80;99.90
35491;DHT22;21605;52.068;20.806;2022-07-05T04:14:19;18.80;99.90
35491;DHT22;21605;52.068;20.806;2022-07-05T04:16:45;18.90;99.90
35491;DHT22;21605;52.068;20.806;2022-07-05T04:19:10;18.90;99.90
35491;DHT22;21605;52.068;20.806;2022-07-05T04:21:36;18.90;99.90
35491;DHT22;21605;52.068;20.806;2022-07-05T04:24:01;18.90;99.90
35491;DHT22;21605;52.068;20.806;2022-07-05T04:26:27;18.90;99.90
35491;DHT22;21605;52.068;20.806;2022-07-05T04:28:53;19.00;99.90
35491;DHT22;21605;52.068;20.806;2022-07-05T04:31:18;19.00;99.90
35491;DHT22;21605;52.068;20.806;2022-07-05T04:33:44;19.00;99.90
35491;DHT22;21605;52.068;20.806;2022-07-05T04:36:09;19.00;99.90
35491;DHT22;21605;52.068;20.806;2022-07-05T04:38:35;19.10;99.90
35491;DHT22;21605;52.068;20.806;2022-07-05T04:41:01;19.10;99.90
35491;DHT22;21605;52.068;20.806;2022-07-05T04:43:26;19.10;99.90
35491;DHT22;21605;52.068;20.806;2022-07-05T04:45:52;19.20;99.90
35491;DHT22;21605;52.068;20.806;2022-07-05T04:48:17;19.20;99.90
35491;DHT22;21605;52.068;20.806;2022-07-05T04:50:43;19.20;99.90
35491;DHT22;21605;52.068;20.806;2022-07-05T04:53:09;19.20;99.90
35491;DHT22;21605;52.068;20.806;2022-07-05T04:55:35;19.20;99.90
35491;DHT22;21605;52.068;20.806;2022-07-05T04:58:01;19.20;99.90
35491;DHT22;21605;52.068;20.806;2022-07-05T05:00:26;19.20;99.90
35491;DHT22;21605;52.068;20.806;2022-07-05T05:02:52;19.20;99.90
35491;DHT22;21605;52.068;20.806;2022-07-05T05:05:18;19.30;99.90
35491;DHT22;21605;52.068;20.806;2022-07-05T05:07:44;19.30;99.90
35491;DHT22;21605;52.068;20.806;2022-07-05T05:10:11;19.30;99.90
35491;DHT22;21605;52.068;20.806;2022-07-05T05:12:37;19.40;99.90
35491;DHT22;21605;52.068;20.806;2022-07-05T05:15:03;19.40;99.90
35491;DHT22;21605;52.068;20.806;2022-07-05T05:17:40;19.40;99.90
35491;DHT22;21605;52.068;20.806;2022-07-05T05:20:11;19.40;99.90
35491;DHT22;21605;52.068;20.806;2022-07-05T05:22:37;19.50;99.90
35491;DHT22;21605;52.068;20.806;2022-07-05T05:25:03;19.60;99.90
35491;DHT22;21605;52.068;20.806;2022-07-05T05:27:29;19.50;99.90
35491;DHT22;21605;52.068;20.806;2022-07-05T05:29:55;19.60;99.90
35491;DHT22;21605;52.068;20.806;2022-07-05T05:32:20;19.70;99.90
35491;DHT22;21605;52.068;20.806;2022-07-05T05:34:46;19.70;99.90
35491;DHT22;21605;52.068;20.806;2022-07-05T05:37:12;19.70;99.90
35491;DHT22;21605;52.068;20.806;2022-07-05T05:39:37;19.80;99.90
35491;DHT22;21605;52.068;20.806;2022-07-05T05:42:03;19.90;99.90
35491;DHT22;21605;52.068;20.806;2022-07-05T05:44:29;19.90;99.90
35491;DHT22;21605;52.068;20.806;2022-07-05T05:46:54;20.00;99.90
35491;DHT22;21605;52.068;20.806;2022-07-05T05:49:20;20.00;99.90
35491;DHT22;21605;52.068;20.806;2022-07-05T05:51:46;20.10;99.90
35491;DHT22;21605;52.068;20.806;2022-07-05T05:54:11;20.20;99.90
35491;DHT22;21605;52.068;20.806;2022-07-05T05:56:37;20.20;99.90
35491;DHT22;21605;52.068;20.806;2022-07-05T05:59:03;20.30;99.90
35491;DHT22;21605;52.068;20.806;2022-07-05T06:01:29;20.50;99.90
35491;DHT22;21605;52.068;20.806;2022-07-05T06:03:55;20.60;99.90
35491;DHT22;21605;52.068;20.806;2022-07-05T06:06:21;20.60;99.90
35491;DHT22;21605;52.068;20.806;2022-07-05T06:08:47;20.70;99.90
35491;DHT22;21605;52.068;20.806;2022-07-05T06:11:12;20.80;99.90
35491;DHT22;21605;52.068;20.806;2022-07-05T06:13:39;20.90;99.90
35491;DHT22;21605;52.068;20.806;2022-07-05T06:16:06;20.90;99.90
35491;DHT22;21605;52.068;20.806;2022-07-05T06:18:32;21.00;99.90
35491;DHT22;21605;52.068;20.806;2022-07-05T06:20:57;21.10;99.90
35491;DHT22;21605;52.068;20.806;2022-07-05T06:23:23;21.20;99.90
35491;DHT22;21605;52.068;20.806;2022-07-05T06:25:49;21.30;99.90
35491;DHT22;21605;52.068;20.806;2022-07-05T06:28:14;21.30;99.90
35491;DHT22;21605;52.068;20.806;2022-07-05T06:30:41;21.40;99.90
35491;DHT22;21605;52.068;20.806;2022-07-05T06:33:07;21.50;99.90
35491;DHT22;21605;52.068;20.806;2022-07-05T06:35:33;21.60;99.90
35491;DHT22;21605;52.068;20.806;2022-07-05T06:38:01;21.70;99.90
35491;DHT22;21605;52.068;20.806;2022-07-05T06:40:45;21.80;99.90
35491;DHT22;21605;52.068;20.806;2022-07-05T06:43:13;21.90;99.90
35491;DHT22;21605;52.068;20.806;2022-07-05T06:45:39;22.00;99.90
35491;DHT22;21605;52.068;20.806;2022-07-05T06:48:09;22.10;99.90
35491;DHT22;21605;52.068;20.806;2022-07-05T06:50:37;22.20;99.80
35491;DHT22;21605;52.068;20.806;2022-07-05T06:53:04;22.30;99.90
35491;DHT22;21605;52.068;20.806;2022-07-05T06:55:31;22.50;99.80
35491;DHT22;21605;52.068;20.806;2022-07-05T06:58:07;22.50;99.90
35491;DHT22;21605;52.068;20.806;2022-07-05T07:00:34;22.60;99.30
35491;DHT22;21605;52.068;20.806;2022-07-05T07:03:00;22.70;99.00
35491;DHT22;21605;52.068;20.806;2022-07-05T07:05:26;22.80;99.10
35491;DHT22;21605;52.068;20.806;2022-07-05T07:07:52;22.90;98.90
35491;DHT22;21605;52.068;20.806;2022-07-05T07:10:36;23.00;98.80
35491;DHT22;21605;52.068;20.806;2022-07-05T07:13:02;23.20;98.70
35491;DHT22;21605;52.068;20.806;2022-07-05T07:15:30;23.30;98.70
35491;DHT22;21605;52.068;20.806;2022-07-05T07:17:57;23.40;98.60
35491;DHT22;21605;52.068;20.806;2022-07-05T07:20:24;23.50;98.40
35491;DHT22;21605;52.068;20.806;2022-07-05T07:22:49;23.60;98.40
35491;DHT22;21605;52.068;20.806;2022-07-05T07:25:15;23.70;98.10
35491;DHT22;21605;52.068;20.806;2022-07-05T07:27:44;23.80;97.50
35491;DHT22;21605;52.068;20.806;2022-07-05T07:30:14;23.90;96.90
35491;DHT22;21605;52.068;20.806;2022-07-05T07:32:41;24.10;97.30
35491;DHT22;21605;52.068;20.806;2022-07-05T07:35:08;24.20;97.20
35491;DHT22;21605;52.068;20.806;2022-07-05T07:37:33;24.30;96.20
35491;DHT22;21605;52.068;20.806;2022-07-05T07:39:59;24.40;96.60
35491;DHT22;21605;52.068;20.806;2022-07-05T07:42:27;24.50;96.40
35491;DHT22;21605;52.068;20.806;2022-07-05T07:44:53;24.70;96.50
35491;DHT22;21605;52.068;20.806;2022-07-05T07:47:19;24.70;96.00
35491;DHT22;21605;52.068;20.806;2022-07-05T07:49:44;24.90;95.50
35491;DHT22;21605;52.068;20.806;2022-07-05T07:52:11;25.00;95.90
35491;DHT22;21605;52.068;20.806;2022-07-05T07:54:36;25.20;95.30
35491;DHT22;21605;52.068;20.806;2022-07-05T07:57:02;25.30;94.50
35491;DHT22;21605;52.068;20.806;2022-07-05T07:59:31;25.40;94.10
35491;DHT22;21605;52.068;20.806;2022-07-05T08:01:56;25.50;94.60
35491;DHT22;21605;52.068;20.806;2022-07-05T08:04:22;25.60;94.10
35491;DHT22;21605;52.068;20.806;2022-07-05T08:06:48;25.70;94.10
35491;DHT22;21605;52.068;20.806;2022-07-05T08:09:14;25.80;93.70
35491;DHT22;21605;52.068;20.806;2022-07-05T08:11:40;25.90;93.70
35491;DHT22;21605;52.068;20.806;2022-07-05T08:14:05;26.00;93.30
35491;DHT22;21605;52.068;20.806;2022-07-05T08:16:31;26.10;93.10
35491;DHT22;21605;52.068;20.806;2022-07-05T08:18:57;26.20;93.00
35491;DHT22;21605;52.068;20.806;2022-07-05T08:21:41;26.20;92.60
35491;DHT22;21605;52.068;20.806;2022-07-05T08:24:09;26.30;92.30
35491;DHT22;21605;52.068;20.806;2022-07-05T08:26:35;26.30;92.60
35491;DHT22;21605;52.068;20.806;2022-07-05T08:29:03;26.50;92.90
35491;DHT22;21605;52.068;20.806;2022-07-05T08:31:31;26.70;92.10
35491;DHT22;21605;52.068;20.806;2022-07-05T08:33:57;26.80;92.10
35491;DHT22;21605;52.068;20.806;2022-07-05T08:36:23;27.00;92.40
35491;DHT22;21605;52.068;20.806;2022-07-05T08:38:48;27.10;92.20
35491;DHT22;21605;52.068;20.806;2022-07-05T08:41:18;27.30;92.00
35491;DHT22;21605;52.068;20.806;2022-07-05T08:43:45;27.40;91.70
35491;DHT22;21605;52.068;20.806;2022-07-05T08:46:12;27.60;91.80
35491;DHT22;21605;52.068;20.806;2022-07-05T08:48:40;27.70;91.20
35491;DHT22;21605;52.068;20.806;2022-07-05T08:51:17;27.90;91.30
35491;DHT22;21605;52.068;20.806;2022-07-05T08:53:44;28.00;90.90
35491;DHT22;21605;52.068;20.806;2022-07-05T08:56:12;28.10;90.90
35491;DHT22;21605;52.068;20.806;2022-07-05T08:58:38;28.30;90.10
35491;DHT22;21605;52.068;20.806;2022-07-05T09:01:04;28.20;88.40
35491;DHT22;21605;52.068;20.806;2022-07-05T09:03:47;28.20;88.00
35491;DHT22;21605;52.068;20.806;2022-07-05T09:06:18;28.30;88.30
35491;DHT22;21605;52.068;20.806;2022-07-05T09:08:44;28.30;88.50
35491;DHT22;21605;52.068;20.806;2022-07-05T09:11:14;28.30;87.00
35491;DHT22;21605;52.068;20.806;2022-07-05T09:13:42;28.30;88.20
35491;DHT22;21605;52.068;20.806;2022-07-05T09:16:09;28.40;86.80
35491;DHT22;21605;52.068;20.806;2022-07-05T09:18:42;28.40;87.00
35491;DHT22;21605;52.068;20.806;2022-07-05T09:23:40;28.40;88.00
35491;DHT22;21605;52.068;20.806;2022-07-05T09:26:06;28.50;86.80
35491;DHT22;21605;52.068;20.806;2022-07-05T09:28:32;28.60;87.70
35491;DHT22;21605;52.068;20.806;2022-07-05T09:30:58;28.70;86.60
35491;DHT22;21605;52.068;20.806;2022-07-05T09:33:24;28.80;86.60
35491;DHT22;21605;52.068;20.806;2022-07-05T09:35:56;28.80;84.90
35491;DHT22;21605;52.068;20.806;2022-07-05T09:38:26;28.90;85.50
35491;DHT22;21605;52.068;20.806;2022-07-05T09:40:53;28.90;84.50
35491;DHT22;21605;52.068;20.806;2022-07-05T09:43:24;29.10;86.50
35491;DHT22;21605;52.068;20.806;2022-07-05T09:45:54;29.20;83.90
35491;DHT22;21605;52.068;20.806;2022-07-05T09:48:20;29.10;84.40
35491;DHT22;21605;52.068;20.806;2022-07-05T09:50:46;29.20;83.90
35491;DHT22;21605;52.068;20.806;2022-07-05T09:53:13;29.20;82.40
35491;DHT22;21605;52.068;20.806;2022-07-05T09:55:39;29.10;81.70
35491;DHT22;21605;52.068;20.806;2022-07-05T09:58:06;29.10;83.40
35491;DHT22;21605;52.068;20.806;2022-07-05T10:00:31;29.00;82.20
35491;DHT22;21605;52.068;20.806;2022-07-05T10:02:58;28.80;81.90
35491;DHT22;21605;52.068;20.806;2022-07-05T10:05:32;28.70;82.90
35491;DHT22;21605;52.068;20.806;2022-07-05T10:08:01;28.10;81.90
35491;DHT22;21605;52.068;20.806;2022-07-05T10:10:31;28.50;82.80
35491;DHT22;21605;52.068;20.806;2022-07-05T10:12:59;28.40;81.80
35491;DHT22;21605;52.068;20.806;2022-07-05T10:15:26;28.30;81.90
35491;DHT22;21605;52.068;20.806;2022-07-05T10:17:54;28.20;82.40
35491;DHT22;21605;52.068;20.806;2022-07-05T10:20:33;28.10;82.60
35491;DHT22;21605;52.068;20.806;2022-07-05T10:23:02;28.00;82.10
35491;DHT22;21605;52.068;20.806;2022-07-05T10:25:28;28.00;82.70
35491;DHT22;21605;52.068;20.806;2022-07-05T10:27:55;27.90;83.70
35491;DHT22;21605;52.068;20.806;2022-07-05T10:30:22;27.90;83.30
35491;DHT22;21605;52.068;20.806;2022-07-05T10:32:49;27.90;85.20
35491;DHT22;21605;52.068;20.806;2022-07-05T10:35:16;27.90;83.70
35491;DHT22;21605;52.068;20.806;2022-07-05T10:37:43;27.90;83.10
35491;DHT22;21605;52.068;20.806;2022-07-05T10:40:09;27.90;83.20
35491;DHT22;21605;52.068;20.806;2022-07-05T10:42:56;27.90;84.60
35491;DHT22;21605;52.068;20.806;2022-07-05T10:58:22;28.10;84.10
35491;DHT22;21605;52.068;20.806;2022-07-05T11:03:55;28.20;83.20
35491;DHT22;21605;52.068;20.806;2022-07-05T11:11:29;28.30;83.50
35491;DHT22;21605;52.068;20.806;2022-07-05T11:13:56;28.40;82.60
35491;DHT22;21605;52.068;20.806;2022-07-05T11:16:36;28.40;81.90
35491;DHT22;21605;52.068;20.806;2022-07-05T11:21:30;28.60;83.30
35491;DHT22;21605;52.068;20.806;2022-07-05T11:24:19;28.60;82.30
35491;DHT22;21605;52.068;20.806;2022-07-05T11:26:48;28.50;81.20
35491;DHT22;21605;52.068;20.806;2022-07-05T11:29:42;28.60;81.70
35491;DHT22;21605;52.068;20.806;2022-07-05T11:34:36;28.60;81.50
35491;DHT22;21605;52.068;20.806;2022-07-05T11:39:44;28.60;80.70
35491;DHT22;21605;52.068;20.806;2022-07-05T11:42:11;28.60;81.00
35491;DHT22;21605;52.068;20.806;2022-07-05T11:44:37;28.60;81.00
35491;DHT22;21605;52.068;20.806;2022-07-05T11:47:05;28.40;79.80
35491;DHT22;21605;52.068;20.806;2022-07-05T11:49:32;28.40;81.10
35491;DHT22;21605;52.068;20.806;2022-07-05T11:52:01;28.30;80.70
35491;DHT22;21605;52.068;20.806;2022-07-05T11:54:31;28.30;81.00
35491;DHT22;21605;52.068;20.806;2022-07-05T11:56:58;28.20;80.70
35491;DHT22;21605;52.068;20.806;2022-07-05T11:59:25;28.00;80.70
35491;DHT22;21605;52.068;20.806;2022-07-05T12:01:51;28.00;80.70
35491;DHT22;21605;52.068;20.806;2022-07-05T12:04:21;28.00;81.40
35491;DHT22;21605;52.068;20.806;2022-07-05T12:06:47;27.90;81.20
35491;DHT22;21605;52.068;20.806;2022-07-05T12:09:14;27.80;81.20
35491;DHT22;21605;52.068;20.806;2022-07-05T12:11:50;27.80;81.20
35491;DHT22;21605;52.068;20.806;2022-07-05T12:14:34;27.70;81.50
35491;DHT22;21605;52.068;20.806;2022-07-05T12:17:12;27.60;80.90
35491;DHT22;21605;52.068;20.806;2022-07-05T12:19:38;27.50;80.80
35491;DHT22;21605;52.068;20.806;2022-07-05T12:22:04;27.40;80.30
35491;DHT22;21605;52.068;20.806;2022-07-05T12:24:29;27.30;80.10
35491;DHT22;21605;52.068;20.806;2022-07-05T12:26:55;27.20;80.70
35491;DHT22;21605;52.068;20.806;2022-07-05T12:29:21;27.20;80.60
35491;DHT22;21605;52.068;20.806;2022-07-05T12:32:04;27.20;81.00
35491;DHT22;21605;52.068;20.806;2022-07-05T12:34:29;27.10;81.20
35491;DHT22;21605;52.068;20.806;2022-07-05T12:36:56;27.10;81.70
35491;DHT22;21605;52.068;20.806;2022-07-05T12:39:23;27.00;81.50
35491;DHT22;21605;52.068;20.806;2022-07-05T12:41:48;26.50;81.40
35491;DHT22;21605;52.068;20.806;2022-07-05T12:44:18;26.90;81.30
35491;DHT22;21605;52.068;20.806;2022-07-05T12:46:44;26.70;80.60
35491;DHT22;21605;52.068;20.806;2022-07-05T12:49:11;26.70;80.70
35491;DHT22;21605;52.068;20.806;2022-07-05T12:51:41;26.60;81.20
35491;DHT22;21605;52.068;20.806;2022-07-05T12:54:08;26.60;81.80
35491;DHT22;21605;52.068;20.806;2022-07-05T12:57:01;26.40;81.20
35491;DHT22;21605;52.068;20.806;2022-07-05T13:02:36;26.30;82.00
35491;DHT22;21605;52.068;20.806;2022-07-05T13:05:04;26.20;82.60
35491;DHT22;21605;52.068;20.806;2022-07-05T13:07:29;26.10;82.70
35491;DHT22;21605;52.068;20.806;2022-07-05T13:10:13;26.00;82.70
35491;DHT22;21605;52.068;20.806;2022-07-05T13:12:38;26.00;82.90
35491;DHT22;21605;52.068;20.806;2022-07-05T13:15:05;25.90;83.00
35491;DHT22;21605;52.068;20.806;2022-07-05T13:17:30;25.80;82.70
35491;DHT22;21605;52.068;20.806;2022-07-05T13:19:56;25.70;82.50
35491;DHT22;21605;52.068;20.806;2022-07-05T13:22:22;25.60;82.10
35491;DHT22;21605;52.068;20.806;2022-07-05T13:24:48;25.50;82.20
35491;DHT22;21605;52.068;20.806;2022-07-05T13:27:13;25.40;83.00
35491;DHT22;21605;52.068;20.806;2022-07-05T13:29:40;25.30;82.90
35491;DHT22;21605;52.068;20.806;2022-07-05T13:32:06;25.20;83.40
35491;DHT22;21605;52.068;20.806;2022-07-05T13:34:32;25.10;83.70
35491;DHT22;21605;52.068;20.806;2022-07-05T13:36:58;25.10;83.80
35491;DHT22;21605;52.068;20.806;2022-07-05T13:39:25;25.00;84.40
35491;DHT22;21605;52.068;20.806;2022-07-05T13:41:53;24.90;86.40
35491;DHT22;21605;52.068;20.806;2022-07-05T13:44:19;24.80;86.00
35491;DHT22;21605;52.068;20.806;2022-07-05T13:46:45;24.70;87.20
35491;DHT22;21605;52.068;20.806;2022-07-05T13:49:11;24.60;88.30
35491;DHT22;21605;52.068;20.806;2022-07-05T13:51:37;24.50;90.50
35491;DHT22;21605;52.068;20.806;2022-07-05T13:54:03;24.30;90.90
35491;DHT22;21605;52.068;20.806;2022-07-05T13:56:28;24.20;91.60
35491;DHT22;21605;52.068;20.806;2022-07-05T13:58:55;23.90;91.80
35491;DHT22;21605;52.068;20.806;2022-07-05T14:01:21;23.80;91.60
35491;DHT22;21605;52.068;20.806;2022-07-05T14:03:52;23.70;92.40
35491;DHT22;21605;52.068;20.806;2022-07-05T14:06:18;23.60;92.10
35491;DHT22;21605;52.068;20.806;2022-07-05T14:08:44;23.40;92.70
35491;DHT22;21605;52.068;20.806;2022-07-05T14:11:10;23.30;93.00
35491;DHT22;21605;52.068;20.806;2022-07-05T14:13:37;23.10;93.30
35491;DHT22;21605;52.068;20.806;2022-07-05T14:16:02;23.00;94.00
35491;DHT22;21605;52.068;20.806;2022-07-05T14:18:28;22.90;94.50
35491;DHT22;21605;52.068;20.806;2022-07-05T14:20:54;22.80;93.80
35491;DHT22;21605;52.068;20.806;2022-07-05T14:23:19;22.80;94.40
35491;DHT22;21605;52.068;20.806;2022-07-05T14:25:45;22.60;94.70
35491;DHT22;21605;52.068;20.806;2022-07-05T14:28:11;22.60;94.70
35491;DHT22;21605;52.068;20.806;2022-07-05T14:30:38;22.50;95.40
35491;DHT22;21605;52.068;20.806;2022-07-05T14:33:05;22.50;95.00
35491;DHT22;21605;52.068;20.806;2022-07-05T14:35:31;22.40;95.40
35491;DHT22;21605;52.068;20.806;2022-07-05T14:37:58;22.40;96.00
35491;DHT22;21605;52.068;20.806;2022-07-05T14:40:24;22.30;96.40
35491;DHT22;21605;52.068;20.806;2022-07-05T14:42:53;22.30;96.40
35491;DHT22;21605;52.068;20.806;2022-07-05T14:45:20;22.20;96.30
35491;DHT22;21605;52.068;20.806;2022-07-05T14:47:46;22.20;96.50
35491;DHT22;21605;52.068;20.806;2022-07-05T14:50:12;22.20;96.50
35491;DHT22;21605;52.068;20.806;2022-07-05T14:52:39;22.20;96.80
35491;DHT22;21605;52.068;20.806;2022-07-05T14:55:05;22.10;96.70
35491;DHT22;21605;52.068;20.806;2022-07-05T14:57:30;22.10;97.20
35491;DHT22;21605;52.068;20.806;2022-07-05T14:59:56;22.10;96.70
35491;DHT22;21605;52.068;20.806;2022-07-05T15:02:22;22.00;97.40
35491;DHT22;21605;52.068;20.806;2022-07-05T15:04:47;22.00;97.10
35491;DHT22;21605;52.068;20.806;2022-07-05T15:07:14;22.00;97.70
35491;DHT22;21605;52.068;20.806;2022-07-05T15:09:40;22.00;97.50
35491;DHT22;21605;52.068;20.806;2022-07-05T15:12:06;21.90;96.80
35491;DHT22;21605;52.068;20.806;2022-07-05T15:14:31;21.90;97.50
35491;DHT22;21605;52.068;20.806;2022-07-05T15:16:57;21.90;97.40
35491;DHT22;21605;52.068;20.806;2022-07-05T15:19:23;21.80;98.00
35491;DHT22;21605;52.068;20.806;2022-07-05T15:21:49;21.80;97.80
35491;DHT22;21605;52.068;20.806;2022-07-05T15:24:15;21.80;97.60
35491;DHT22;21605;52.068;20.806;2022-07-05T15:26:43;21.80;97.90
35491;DHT22;21605;52.068;20.806;2022-07-05T15:29:09;21.80;97.80
35491;DHT22;21605;52.068;20.806;2022-07-05T15:31:36;21.70;98.10
35491;DHT22;21605;52.068;20.806;2022-07-05T15:34:03;21.70;98.50
35491;DHT22;21605;52.068;20.806;2022-07-05T15:36:30;21.60;98.10
35491;DHT22;21605;52.068;20.806;2022-07-05T15:39:02;21.60;98.00
35491;DHT22;21605;52.068;20.806;2022-07-05T15:41:28;21.60;98.00
35491;DHT22;21605;52.068;20.806;2022-07-05T15:43:54;21.50;98.30
35491;DHT22;21605;52.068;20.806;2022-07-05T15:46:20;21.40;98.00
35491;DHT22;21605;52.068;20.806;2022-07-05T15:48:46;21.30;98.20
35491;DHT22;21605;52.068;20.806;2022-07-05T15:51:14;21.20;98.00